RYR50XY LFMU-EGGW
Flight info
| Callsign | RYR50XY |
|---|---|
| Flight time | 1h 58m |
| Altitude | 36000 |
| Route | FJR DCT NG DCT MOLEN DCT MTL DCT ETREK DCT MADOT DCT MOPEM DCT CACHI DCT AVLON DCT OKRIX DCT BRY DCT CLM DCT KOPOR DCT PIREG DCT SOSUN DCT SUBIP UM733 UNDUG |
| Aircraft | B738/M-SDE2E3FGHIRWXY/LB1 |
Departure
| Time | 2026-05-01 10:06 |
|---|---|
| Airport | Béziers Vias airport (LFMU) |
Arrival
| Time | 2026-05-01 12:05 |
|---|---|
| Airport | London Luton Airport (EGGW) |
| Time | Latitude | Longitude | Altitude | Speed | Heading |
|---|---|---|---|---|---|
| 2026-05-01 09:47 | 43.32144 | 3.35312 | 55 ft | 0 kts | 308° |
| 2026-05-01 10:02 | 43.32153 | 3.35307 | 50 ft | 2 kts | 350° |
| 2026-05-01 10:02 | 43.32185 | 3.35321 | 51 ft | 8 kts | 18° |
| 2026-05-01 10:03 | 43.32263 | 3.35335 | 55 ft | 14 kts | 5° |
| 2026-05-01 10:03 | 43.32347 | 3.35282 | 54 ft | 16 kts | 282° |
| 2026-05-01 10:03 | 43.32358 | 3.35112 | 53 ft | 19 kts | 274° |
| 2026-05-01 10:03 | 43.32368 | 3.34923 | 50 ft | 20 kts | 275° |
| 2026-05-01 10:04 | 43.32380 | 3.34723 | 58 ft | 22 kts | 274° |
| 2026-05-01 10:04 | 43.32392 | 3.34502 | 56 ft | 24 kts | 274° |
| 2026-05-01 10:04 | 43.32403 | 3.34293 | 60 ft | 13 kts | 271° |
| 2026-05-01 10:04 | 43.32386 | 3.34207 | 56 ft | 5 kts | 285° |
| 2026-05-01 10:05 | 43.32403 | 3.34210 | 56 ft | 3 kts | 56° |
| 2026-05-01 10:05 | 43.32405 | 3.34249 | 60 ft | 5 kts | 93° |
| 2026-05-01 10:05 | 43.32404 | 3.34262 | 60 ft | 3 kts | 94° |
| 2026-05-01 10:05 | 43.32389 | 3.34538 | 58 ft | 66 kts | 94° |
| 2026-05-01 10:06 | 43.32336 | 3.35497 | 54 ft | 133 kts | 94° |
| 2026-05-01 10:06 | 43.32246 | 3.36920 | 431 ft | 158 kts | 98° |
| 2026-05-01 10:06 | 43.32164 | 3.38424 | 1372 ft | 153 kts | 94° |
| 2026-05-01 10:06 | 43.32544 | 3.39863 | 2108 ft | 180 kts | 56° |
| 2026-05-01 10:07 | 43.33435 | 3.41301 | 2430 ft | 214 kts | 55° |
| 2026-05-01 10:07 | 43.34440 | 3.42969 | 2810 ft | 239 kts | 56° |
| 2026-05-01 10:07 | 43.35537 | 3.44801 | 3378 ft | 255 kts | 56° |
| 2026-05-01 10:07 | 43.36685 | 3.46709 | 4256 ft | 261 kts | 55° |
| 2026-05-01 10:08 | 43.39010 | 3.50630 | 6113 ft | 269 kts | 54° |
| 2026-05-01 10:08 | 43.40203 | 3.52655 | 6963 ft | 275 kts | 54° |
| 2026-05-01 10:08 | 43.41417 | 3.54721 | 7776 ft | 281 kts | 54° |
| 2026-05-01 10:09 | 43.42661 | 3.56845 | 8594 ft | 287 kts | 53° |
| 2026-05-01 10:09 | 43.43903 | 3.58981 | 9441 ft | 292 kts | 55° |
| 2026-05-01 10:09 | 43.44990 | 3.61418 | 10249 ft | 297 kts | 64° |
| 2026-05-01 10:09 | 43.45904 | 3.63962 | 10922 ft | 308 kts | 66° |
| 2026-05-01 10:10 | 43.46858 | 3.66734 | 11146 ft | 332 kts | 66° |
| 2026-05-01 10:10 | 43.47871 | 3.69662 | 11731 ft | 344 kts | 65° |
| 2026-05-01 10:10 | 43.50004 | 3.75695 | 13234 ft | 354 kts | 65° |
| 2026-05-01 10:11 | 43.51099 | 3.78748 | 14045 ft | 359 kts | 64° |
| 2026-05-01 10:11 | 43.52217 | 3.81853 | 14719 ft | 364 kts | 64° |
| 2026-05-01 10:11 | 43.53344 | 3.84978 | 15465 ft | 365 kts | 64° |
| 2026-05-01 10:11 | 43.54483 | 3.88139 | 16138 ft | 371 kts | 64° |
| 2026-05-01 10:12 | 43.55635 | 3.91341 | 16830 ft | 374 kts | 64° |
| 2026-05-01 10:12 | 43.56402 | 3.93473 | 17305 ft | 376 kts | 64° |
| 2026-05-01 10:12 | 43.59722 | 4.00642 | 18844 ft | 387 kts | 49° |
| 2026-05-01 10:13 | 43.61545 | 4.03389 | 19464 ft | 389 kts | 48° |
| 2026-05-01 10:13 | 43.63390 | 4.06145 | 20059 ft | 393 kts | 48° |
| 2026-05-01 10:13 | 43.65245 | 4.08937 | 20642 ft | 396 kts | 48° |
| 2026-05-01 10:14 | 43.68965 | 4.14618 | 21799 ft | 402 kts | 49° |
| 2026-05-01 10:14 | 43.70840 | 4.17509 | 22334 ft | 406 kts | 49° |
| 2026-05-01 10:14 | 43.72727 | 4.20430 | 22900 ft | 408 kts | 49° |
| 2026-05-01 10:14 | 43.74625 | 4.23372 | 23449 ft | 412 kts | 49° |
| 2026-05-01 10:15 | 43.76542 | 4.26347 | 23942 ft | 416 kts | 49° |
| 2026-05-01 10:15 | 43.78474 | 4.29348 | 24372 ft | 419 kts | 49° |
| 2026-05-01 10:15 | 43.80419 | 4.32369 | 24811 ft | 422 kts | 49° |
| 2026-05-01 10:15 | 43.82378 | 4.35417 | 25232 ft | 425 kts | 48° |
| 2026-05-01 10:16 | 43.84435 | 4.38389 | 25631 ft | 429 kts | 41° |
| 2026-05-01 10:16 | 43.86810 | 4.40869 | 26052 ft | 431 kts | 31° |
| 2026-05-01 10:16 | 43.91321 | 4.43826 | 26770 ft | 433 kts | 20° |
| 2026-05-01 10:17 | 43.94155 | 4.45282 | 27177 ft | 436 kts | 19° |
| 2026-05-01 10:17 | 43.99875 | 4.48231 | 27973 ft | 441 kts | 19° |
| 2026-05-01 10:17 | 44.02748 | 4.49767 | 28370 ft | 443 kts | 20° |
| 2026-05-01 10:18 | 44.08530 | 4.52880 | 29142 ft | 448 kts | 19° |
| 2026-05-01 10:18 | 44.11446 | 4.54429 | 29518 ft | 450 kts | 19° |
| 2026-05-01 10:18 | 44.14384 | 4.55984 | 29874 ft | 452 kts | 19° |
| 2026-05-01 10:19 | 44.17329 | 4.57544 | 30222 ft | 454 kts | 19° |
| 2026-05-01 10:19 | 44.20287 | 4.59114 | 30616 ft | 454 kts | 19° |
| 2026-05-01 10:19 | 44.23232 | 4.60682 | 31077 ft | 452 kts | 19° |
| 2026-05-01 10:20 | 44.29087 | 4.63807 | 31851 ft | 451 kts | 19° |
| 2026-05-01 10:20 | 44.32020 | 4.65375 | 32193 ft | 451 kts | 19° |
| 2026-05-01 10:20 | 44.34945 | 4.66940 | 32577 ft | 450 kts | 19° |
| 2026-05-01 10:20 | 44.37865 | 4.68504 | 32969 ft | 449 kts | 19° |
| 2026-05-01 10:21 | 44.40778 | 4.70067 | 33339 ft | 448 kts | 19° |
| 2026-05-01 10:21 | 44.46591 | 4.73190 | 34046 ft | 447 kts | 19° |
| 2026-05-01 10:21 | 44.49457 | 4.74731 | 34371 ft | 447 kts | 19° |
| 2026-05-01 10:22 | 44.55422 | 4.77080 | 34995 ft | 440 kts | 4° |
| 2026-05-01 10:22 | 44.61438 | 4.76850 | 35539 ft | 434 kts | 348° |
| 2026-05-01 10:23 | 44.64419 | 4.76175 | 35836 ft | 433 kts | 348° |
| 2026-05-01 10:23 | 44.70359 | 4.74762 | 36298 ft | 434 kts | 348° |
| 2026-05-01 10:23 | 44.73356 | 4.74062 | 36285 ft | 438 kts | 348° |
| 2026-05-01 10:24 | 44.85350 | 4.71367 | 36286 ft | 431 kts | 348° |
| 2026-05-01 10:25 | 44.97189 | 4.68724 | 36288 ft | 430 kts | 348° |
| 2026-05-01 10:26 | 45.03107 | 4.67397 | 36291 ft | 431 kts | 348° |
| 2026-05-01 10:27 | 45.14950 | 4.64733 | 36282 ft | 432 kts | 348° |
| 2026-05-01 10:28 | 45.23857 | 4.62716 | 36275 ft | 433 kts | 348° |
| 2026-05-01 10:28 | 45.32790 | 4.60673 | 36278 ft | 434 kts | 348° |
| 2026-05-01 10:29 | 45.41746 | 4.58619 | 36286 ft | 435 kts | 348° |
| 2026-05-01 10:30 | 45.53684 | 4.55872 | 36281 ft | 436 kts | 348° |
| 2026-05-01 10:31 | 45.65696 | 4.53096 | 36283 ft | 437 kts | 349° |
| 2026-05-01 10:32 | 45.74712 | 4.51005 | 36273 ft | 438 kts | 349° |
| 2026-05-01 10:33 | 45.86734 | 4.48206 | 36273 ft | 437 kts | 349° |
| 2026-05-01 10:34 | 45.95697 | 4.46111 | 36255 ft | 437 kts | 349° |
| 2026-05-01 10:34 | 46.01702 | 4.44704 | 36261 ft | 437 kts | 349° |
| 2026-05-01 10:35 | 46.10699 | 4.42589 | 36252 ft | 437 kts | 349° |
| 2026-05-01 10:35 | 46.16700 | 4.41175 | 36269 ft | 437 kts | 349° |
| 2026-05-01 10:36 | 46.25710 | 4.39045 | 36262 ft | 438 kts | 349° |
| 2026-05-01 10:37 | 46.31692 | 4.37407 | 36265 ft | 437 kts | 346° |
| 2026-05-01 10:37 | 46.40518 | 4.34233 | 36269 ft | 438 kts | 345° |
| 2026-05-01 10:38 | 46.46432 | 4.32099 | 36260 ft | 439 kts | 345° |
| 2026-05-01 10:38 | 46.52368 | 4.29995 | 36256 ft | 439 kts | 346° |
| 2026-05-01 10:39 | 46.58317 | 4.27898 | 36266 ft | 440 kts | 346° |
| 2026-05-01 10:39 | 46.64279 | 4.25792 | 36256 ft | 442 kts | 346° |
| 2026-05-01 10:40 | 46.70258 | 4.23675 | 36260 ft | 443 kts | 346° |
| 2026-05-01 10:40 | 46.76252 | 4.21546 | 36264 ft | 444 kts | 346° |
| 2026-05-01 10:41 | 46.82263 | 4.19406 | 36257 ft | 445 kts | 346° |
| 2026-05-01 10:42 | 46.91292 | 4.16182 | 36258 ft | 446 kts | 346° |
| 2026-05-01 10:42 | 46.97325 | 4.14022 | 36257 ft | 446 kts | 346° |
| 2026-05-01 10:43 | 47.03360 | 4.11857 | 36264 ft | 446 kts | 347° |
| 2026-05-01 10:43 | 47.09322 | 4.09322 | 36260 ft | 446 kts | 340° |
| 2026-05-01 10:44 | 47.15080 | 4.05882 | 36249 ft | 447 kts | 338° |
| 2026-05-01 10:44 | 47.20814 | 4.02360 | 36249 ft | 446 kts | 338° |
| 2026-05-01 10:45 | 47.26552 | 3.98913 | 36254 ft | 445 kts | 339° |
| 2026-05-01 10:45 | 47.32292 | 3.95501 | 36252 ft | 444 kts | 339° |
| 2026-05-01 10:46 | 47.38021 | 3.92094 | 36249 ft | 444 kts | 339° |
| 2026-05-01 10:46 | 47.43705 | 3.88702 | 36250 ft | 443 kts | 339° |
| 2026-05-01 10:47 | 47.49423 | 3.85280 | 36251 ft | 443 kts | 339° |
| 2026-05-01 10:47 | 47.55134 | 3.81856 | 36253 ft | 443 kts | 339° |
| 2026-05-01 10:48 | 47.60848 | 3.78423 | 36251 ft | 443 kts | 339° |
| 2026-05-01 10:48 | 47.66568 | 3.74980 | 36250 ft | 444 kts | 339° |
| 2026-05-01 10:49 | 47.72295 | 3.71523 | 36252 ft | 445 kts | 339° |
| 2026-05-01 10:49 | 47.78029 | 3.68053 | 36248 ft | 445 kts | 339° |
| 2026-05-01 10:50 | 47.83775 | 3.64568 | 36250 ft | 446 kts | 339° |
| 2026-05-01 10:50 | 47.89523 | 3.61073 | 36247 ft | 446 kts | 339° |
| 2026-05-01 10:51 | 47.95279 | 3.57565 | 36248 ft | 447 kts | 339° |
| 2026-05-01 10:51 | 48.01000 | 3.54065 | 36249 ft | 447 kts | 339° |
| 2026-05-01 10:52 | 48.06758 | 3.50524 | 36244 ft | 448 kts | 339° |
| 2026-05-01 10:52 | 48.12435 | 3.47025 | 36251 ft | 448 kts | 339° |
| 2026-05-01 10:53 | 48.18192 | 3.43468 | 36252 ft | 448 kts | 339° |
| 2026-05-01 10:53 | 48.23953 | 3.39900 | 36250 ft | 448 kts | 339° |
| 2026-05-01 10:54 | 48.29709 | 3.36327 | 36240 ft | 448 kts | 339° |
| 2026-05-01 10:54 | 48.35468 | 3.32744 | 36242 ft | 448 kts | 339° |
| 2026-05-01 10:55 | 48.41212 | 3.29160 | 36241 ft | 447 kts | 339° |
| 2026-05-01 10:55 | 48.46949 | 3.25519 | 36242 ft | 447 kts | 339° |
| 2026-05-01 10:56 | 48.52660 | 3.21863 | 36253 ft | 446 kts | 339° |
| 2026-05-01 10:56 | 48.58368 | 3.18204 | 36240 ft | 445 kts | 339° |
| 2026-05-01 10:57 | 48.64065 | 3.14549 | 36241 ft | 445 kts | 339° |
| 2026-05-01 10:57 | 48.69765 | 3.10883 | 36245 ft | 444 kts | 339° |
| 2026-05-01 10:58 | 48.75455 | 3.07214 | 36238 ft | 444 kts | 339° |
| 2026-05-01 10:58 | 48.81098 | 3.03568 | 36248 ft | 444 kts | 339° |
| 2026-05-01 10:59 | 48.86708 | 2.99641 | 36242 ft | 445 kts | 333° |
| 2026-05-01 10:59 | 48.90598 | 2.96270 | 36238 ft | 446 kts | 331° |
| 2026-05-01 11:00 | 48.96168 | 2.91252 | 36236 ft | 446 kts | 332° |
| 2026-05-01 11:00 | 49.01530 | 2.86475 | 36236 ft | 446 kts | 332° |
| 2026-05-01 11:01 | 49.06907 | 2.81733 | 36234 ft | 447 kts | 332° |
| 2026-05-01 11:01 | 49.12294 | 2.76988 | 36233 ft | 447 kts | 332° |
| 2026-05-01 11:02 | 49.17680 | 2.72233 | 36240 ft | 447 kts | 332° |
| 2026-05-01 11:02 | 49.23065 | 2.67463 | 36236 ft | 447 kts | 332° |
| 2026-05-01 11:03 | 49.28455 | 2.62677 | 36230 ft | 448 kts | 332° |
| 2026-05-01 11:03 | 49.33843 | 2.57879 | 36236 ft | 448 kts | 332° |
| 2026-05-01 11:04 | 49.39241 | 2.53059 | 36236 ft | 449 kts | 332° |
| 2026-05-01 11:04 | 49.44638 | 2.48229 | 36233 ft | 449 kts | 332° |
| 2026-05-01 11:05 | 49.50042 | 2.43378 | 36231 ft | 450 kts | 331° |
| 2026-05-01 11:05 | 49.54999 | 2.37475 | 36241 ft | 452 kts | 319° |
| 2026-05-01 11:06 | 49.58859 | 2.32033 | 36234 ft | 453 kts | 319° |
| 2026-05-01 11:06 | 49.63500 | 2.25484 | 36242 ft | 452 kts | 319° |
| 2026-05-01 11:07 | 49.70507 | 2.15724 | 36222 ft | 452 kts | 319° |
| 2026-05-01 11:07 | 49.75176 | 2.09226 | 36229 ft | 452 kts | 319° |
| 2026-05-01 11:08 | 49.79844 | 2.02706 | 36229 ft | 452 kts | 319° |
| 2026-05-01 11:09 | 49.86720 | 1.92744 | 36206 ft | 452 kts | 310° |
| 2026-05-01 11:09 | 49.90007 | 1.84473 | 36223 ft | 452 kts | 292° |
| 2026-05-01 11:10 | 49.93467 | 1.70931 | 36230 ft | 452 kts | 291° |
| 2026-05-01 11:10 | 49.95833 | 1.61872 | 36217 ft | 453 kts | 291° |
| 2026-05-01 11:11 | 49.98544 | 1.53067 | 36208 ft | 453 kts | 304° |
| 2026-05-01 11:11 | 50.02677 | 1.45793 | 36224 ft | 447 kts | 319° |
| 2026-05-01 11:12 | 50.07370 | 1.39519 | 36224 ft | 444 kts | 320° |
| 2026-05-01 11:12 | 50.12065 | 1.33261 | 35812 ft | 444 kts | 320° |
| 2026-05-01 11:13 | 50.14379 | 1.30132 | 35461 ft | 438 kts | 320° |
| 2026-05-01 11:13 | 50.16669 | 1.27011 | 35077 ft | 435 kts | 320° |
| 2026-05-01 11:13 | 50.18941 | 1.23902 | 34701 ft | 433 kts | 319° |
| 2026-05-01 11:13 | 50.21191 | 1.20815 | 34330 ft | 430 kts | 319° |
| 2026-05-01 11:14 | 50.23432 | 1.17735 | 33911 ft | 428 kts | 319° |
| 2026-05-01 11:14 | 50.25660 | 1.14669 | 33496 ft | 426 kts | 319° |
| 2026-05-01 11:14 | 50.27875 | 1.11618 | 33108 ft | 423 kts | 319° |
| 2026-05-01 11:14 | 50.30074 | 1.08587 | 32730 ft | 420 kts | 319° |
| 2026-05-01 11:15 | 50.32260 | 1.05569 | 32362 ft | 418 kts | 319° |
| 2026-05-01 11:15 | 50.34432 | 1.02567 | 32000 ft | 415 kts | 319° |
| 2026-05-01 11:15 | 50.36590 | 0.99580 | 31642 ft | 413 kts | 319° |
| 2026-05-01 11:15 | 50.38733 | 0.96610 | 31290 ft | 410 kts | 319° |
| 2026-05-01 11:16 | 50.40868 | 0.93650 | 30938 ft | 408 kts | 319° |
| 2026-05-01 11:16 | 50.42986 | 0.90708 | 30589 ft | 407 kts | 319° |
| 2026-05-01 11:16 | 50.45104 | 0.87771 | 30227 ft | 405 kts | 319° |
| 2026-05-01 11:16 | 50.47241 | 0.84910 | 29809 ft | 403 kts | 320° |
| 2026-05-01 11:17 | 50.49385 | 0.82098 | 29425 ft | 400 kts | 320° |
| 2026-05-01 11:17 | 50.51485 | 0.79336 | 29072 ft | 397 kts | 320° |
| 2026-05-01 11:17 | 50.53616 | 0.76515 | 28696 ft | 394 kts | 320° |
| 2026-05-01 11:17 | 50.55673 | 0.73780 | 28349 ft | 391 kts | 320° |
| 2026-05-01 11:18 | 50.57741 | 0.71024 | 27979 ft | 389 kts | 320° |
| 2026-05-01 11:18 | 50.59795 | 0.68281 | 27626 ft | 386 kts | 320° |
| 2026-05-01 11:18 | 50.61839 | 0.65550 | 27277 ft | 384 kts | 320° |
| 2026-05-01 11:18 | 50.63869 | 0.62835 | 26927 ft | 382 kts | 320° |
| 2026-05-01 11:19 | 50.65883 | 0.60137 | 26584 ft | 380 kts | 320° |
| 2026-05-01 11:19 | 50.67889 | 0.57447 | 26237 ft | 378 kts | 320° |
| 2026-05-01 11:19 | 50.69886 | 0.54766 | 25892 ft | 376 kts | 320° |
| 2026-05-01 11:19 | 50.71869 | 0.52101 | 25558 ft | 374 kts | 320° |
| 2026-05-01 11:20 | 50.73849 | 0.49437 | 25213 ft | 373 kts | 320° |
| 2026-05-01 11:20 | 50.75818 | 0.46786 | 24870 ft | 371 kts | 320° |
| 2026-05-01 11:20 | 50.77782 | 0.44139 | 24529 ft | 370 kts | 320° |
| 2026-05-01 11:20 | 50.79735 | 0.41502 | 24185 ft | 369 kts | 320° |
| 2026-05-01 11:21 | 50.81689 | 0.38861 | 23824 ft | 369 kts | 320° |
| 2026-05-01 11:21 | 50.83637 | 0.36226 | 23434 ft | 368 kts | 319° |
| 2026-05-01 11:21 | 50.85484 | 0.33725 | 23060 ft | 366 kts | 319° |
| 2026-05-01 11:21 | 50.87092 | 0.31544 | 22764 ft | 365 kts | 319° |
| 2026-05-01 11:22 | 50.89016 | 0.28933 | 22413 ft | 363 kts | 319° |
| 2026-05-01 11:22 | 50.90927 | 0.26336 | 22056 ft | 361 kts | 319° |
| 2026-05-01 11:22 | 50.92822 | 0.23758 | 21724 ft | 359 kts | 319° |
| 2026-05-01 11:22 | 50.94719 | 0.21173 | 21386 ft | 357 kts | 319° |
| 2026-05-01 11:23 | 50.96599 | 0.18611 | 21054 ft | 356 kts | 319° |
| 2026-05-01 11:23 | 50.98472 | 0.16055 | 20726 ft | 354 kts | 318° |
| 2026-05-01 11:23 | 51.00336 | 0.13509 | 20396 ft | 353 kts | 318° |
| 2026-05-01 11:23 | 51.02209 | 0.10993 | 20143 ft | 351 kts | 321° |
| 2026-05-01 11:24 | 51.04162 | 0.08703 | 20001 ft | 347 kts | 324° |
| 2026-05-01 11:24 | 51.06154 | 0.06529 | 19845 ft | 350 kts | 325° |
| 2026-05-01 11:24 | 51.10246 | 0.02118 | 19528 ft | 359 kts | 325° |
| 2026-05-01 11:25 | 51.12300 | -0.00120 | 19353 ft | 357 kts | 325° |
| 2026-05-01 11:25 | 51.16354 | -0.04583 | 19028 ft | 352 kts | 324° |
| 2026-05-01 11:25 | 51.18356 | -0.06804 | 18871 ft | 350 kts | 324° |
| 2026-05-01 11:26 | 51.20349 | -0.09019 | 18720 ft | 348 kts | 324° |
| 2026-05-01 11:26 | 51.24309 | -0.13431 | 18398 ft | 346 kts | 324° |
| 2026-05-01 11:26 | 51.26282 | -0.15634 | 18239 ft | 345 kts | 324° |
| 2026-05-01 11:27 | 51.28222 | -0.17803 | 18072 ft | 345 kts | 324° |
| 2026-05-01 11:27 | 51.30183 | -0.19997 | 17927 ft | 345 kts | 324° |
| 2026-05-01 11:27 | 51.32148 | -0.22198 | 17747 ft | 344 kts | 323° |
| 2026-05-01 11:27 | 51.34104 | -0.24391 | 17621 ft | 343 kts | 322° |
| 2026-05-01 11:28 | 51.36058 | -0.26582 | 17455 ft | 343 kts | 322° |
| 2026-05-01 11:28 | 51.38006 | -0.28771 | 17295 ft | 342 kts | 322° |
| 2026-05-01 11:28 | 51.39951 | -0.30958 | 17134 ft | 341 kts | 322° |
| 2026-05-01 11:29 | 51.44357 | -0.33409 | 16815 ft | 343 kts | 4° |
| 2026-05-01 11:29 | 51.46653 | -0.32566 | 16673 ft | 339 kts | 25° |
| 2026-05-01 11:29 | 51.50895 | -0.29339 | 16373 ft | 337 kts | 28° |
| 2026-05-01 11:30 | 51.52997 | -0.27674 | 16217 ft | 337 kts | 28° |
| 2026-05-01 11:30 | 51.55107 | -0.26016 | 16062 ft | 337 kts | 28° |
| 2026-05-01 11:30 | 51.57216 | -0.24376 | 15897 ft | 337 kts | 28° |
| 2026-05-01 11:30 | 51.59328 | -0.22744 | 15757 ft | 336 kts | 28° |
| 2026-05-01 11:31 | 51.61436 | -0.21120 | 15617 ft | 336 kts | 28° |
| 2026-05-01 11:31 | 51.63539 | -0.19502 | 15460 ft | 335 kts | 28° |
| 2026-05-01 11:31 | 51.65639 | -0.17885 | 15327 ft | 334 kts | 27° |
| 2026-05-01 11:31 | 51.67730 | -0.16273 | 15165 ft | 333 kts | 28° |
| 2026-05-01 11:32 | 51.69816 | -0.14664 | 15038 ft | 332 kts | 27° |
| 2026-05-01 11:32 | 51.71897 | -0.13056 | 14923 ft | 330 kts | 28° |
| 2026-05-01 11:32 | 51.73961 | -0.11459 | 14804 ft | 329 kts | 28° |
| 2026-05-01 11:32 | 51.75817 | -0.09463 | 14661 ft | 323 kts | 47° |
| 2026-05-01 11:33 | 51.77375 | -0.06899 | 14570 ft | 319 kts | 50° |
| 2026-05-01 11:33 | 51.78891 | -0.04287 | 14445 ft | 319 kts | 51° |
| 2026-05-01 11:33 | 51.80425 | -0.01636 | 14343 ft | 318 kts | 50° |
| 2026-05-01 11:33 | 51.81922 | 0.00931 | 14235 ft | 319 kts | 50° |
| 2026-05-01 11:34 | 51.83450 | 0.03531 | 14116 ft | 319 kts | 50° |
| 2026-05-01 11:34 | 51.84976 | 0.06116 | 13997 ft | 318 kts | 50° |
| 2026-05-01 11:34 | 51.86505 | 0.08701 | 13873 ft | 317 kts | 50° |
| 2026-05-01 11:34 | 51.88032 | 0.11278 | 13753 ft | 317 kts | 50° |
| 2026-05-01 11:35 | 51.89554 | 0.13850 | 13624 ft | 316 kts | 50° |
| 2026-05-01 11:35 | 51.91074 | 0.16420 | 13500 ft | 315 kts | 50° |
| 2026-05-01 11:35 | 51.92743 | 0.18732 | 13362 ft | 320 kts | 31° |
| 2026-05-01 11:35 | 51.94756 | 0.20246 | 13283 ft | 318 kts | 25° |
| 2026-05-01 11:36 | 51.96795 | 0.21639 | 13166 ft | 319 kts | 25° |
| 2026-05-01 11:36 | 51.98840 | 0.23036 | 13039 ft | 319 kts | 25° |
| 2026-05-01 11:36 | 52.00880 | 0.24453 | 12917 ft | 319 kts | 25° |
| 2026-05-01 11:36 | 52.02912 | 0.25887 | 12801 ft | 319 kts | 25° |
| 2026-05-01 11:37 | 52.04945 | 0.27333 | 12680 ft | 319 kts | 25° |
| 2026-05-01 11:37 | 52.06976 | 0.28779 | 12534 ft | 318 kts | 24° |
| 2026-05-01 11:37 | 52.09130 | 0.29553 | 12384 ft | 320 kts | 359° |
| 2026-05-01 11:37 | 52.11275 | 0.28817 | 12294 ft | 315 kts | 333° |
| 2026-05-01 11:38 | 52.13050 | 0.26805 | 12196 ft | 309 kts | 309° |
| 2026-05-01 11:38 | 52.14357 | 0.24071 | 12097 ft | 305 kts | 302° |
| 2026-05-01 11:38 | 52.15557 | 0.21223 | 11975 ft | 305 kts | 300° |
| 2026-05-01 11:38 | 52.16739 | 0.18355 | 11851 ft | 304 kts | 300° |
| 2026-05-01 11:39 | 52.17921 | 0.15498 | 11743 ft | 304 kts | 301° |
| 2026-05-01 11:39 | 52.19109 | 0.12647 | 11631 ft | 304 kts | 301° |
| 2026-05-01 11:39 | 52.20285 | 0.09840 | 11518 ft | 304 kts | 301° |
| 2026-05-01 11:39 | 52.21477 | 0.07002 | 11418 ft | 303 kts | 301° |
| 2026-05-01 11:40 | 52.22688 | 0.04129 | 11287 ft | 303 kts | 301° |
| 2026-05-01 11:40 | 52.23857 | 0.01359 | 11177 ft | 296 kts | 301° |
| 2026-05-01 11:40 | 52.25009 | -0.01374 | 11066 ft | 289 kts | 301° |
| 2026-05-01 11:40 | 52.26133 | -0.04040 | 10938 ft | 281 kts | 301° |
| 2026-05-01 11:41 | 52.27059 | -0.06764 | 10823 ft | 268 kts | 284° |
| 2026-05-01 11:41 | 52.27567 | -0.09626 | 10752 ft | 259 kts | 281° |
| 2026-05-01 11:41 | 52.28035 | -0.12446 | 10656 ft | 257 kts | 281° |
| 2026-05-01 11:41 | 52.28504 | -0.15265 | 10568 ft | 257 kts | 281° |
| 2026-05-01 11:42 | 52.28981 | -0.18097 | 10489 ft | 260 kts | 281° |
| 2026-05-01 11:42 | 52.29467 | -0.20968 | 10400 ft | 263 kts | 281° |
| 2026-05-01 11:42 | 52.29963 | -0.23858 | 10293 ft | 264 kts | 282° |
| 2026-05-01 11:42 | 52.30458 | -0.26749 | 10180 ft | 265 kts | 282° |
| 2026-05-01 11:43 | 52.30958 | -0.29654 | 10102 ft | 266 kts | 281° |
| 2026-05-01 11:43 | 52.31458 | -0.32553 | 9982 ft | 264 kts | 282° |
| 2026-05-01 11:43 | 52.31952 | -0.35425 | 9867 ft | 260 kts | 281° |
| 2026-05-01 11:44 | 52.32919 | -0.41049 | 9666 ft | 257 kts | 284° |
| 2026-05-01 11:44 | 52.33758 | -0.43646 | 9554 ft | 263 kts | 307° |
| 2026-05-01 11:44 | 52.35181 | -0.45532 | 9465 ft | 267 kts | 332° |
| 2026-05-01 11:44 | 52.36959 | -0.46353 | 9375 ft | 268 kts | 357° |
| 2026-05-01 11:45 | 52.38792 | -0.45952 | 9271 ft | 267 kts | 22° |
| 2026-05-01 11:45 | 52.40359 | -0.44402 | 9179 ft | 263 kts | 46° |
| 2026-05-01 11:45 | 52.41410 | -0.42012 | 9086 ft | 258 kts | 70° |
| 2026-05-01 11:45 | 52.41811 | -0.39204 | 9006 ft | 252 kts | 93° |
| 2026-05-01 11:46 | 52.41551 | -0.36449 | 8906 ft | 247 kts | 114° |
| 2026-05-01 11:46 | 52.40701 | -0.34061 | 8812 ft | 242 kts | 134° |
| 2026-05-01 11:46 | 52.39458 | -0.32247 | 8733 ft | 239 kts | 148° |
| 2026-05-01 11:46 | 52.38052 | -0.30793 | 8639 ft | 240 kts | 151° |
| 2026-05-01 11:47 | 52.36622 | -0.29386 | 8546 ft | 240 kts | 151° |
| 2026-05-01 11:47 | 52.35189 | -0.27968 | 8457 ft | 241 kts | 151° |
| 2026-05-01 11:47 | 52.33758 | -0.26539 | 8379 ft | 241 kts | 150° |
| 2026-05-01 11:47 | 52.32328 | -0.25106 | 8274 ft | 240 kts | 150° |
| 2026-05-01 11:48 | 52.30913 | -0.23686 | 8180 ft | 235 kts | 152° |
| 2026-05-01 11:48 | 52.29543 | -0.22268 | 8161 ft | 235 kts | 137° |
| 2026-05-01 11:48 | 52.28733 | -0.19975 | 8192 ft | 240 kts | 106° |
| 2026-05-01 11:48 | 52.28761 | -0.17203 | 8181 ft | 253 kts | 77° |
| 2026-05-01 11:49 | 52.29382 | -0.14468 | 8169 ft | 261 kts | 64° |
| 2026-05-01 11:49 | 52.30592 | -0.12272 | 8181 ft | 263 kts | 33° |
| 2026-05-01 11:49 | 52.32300 | -0.11285 | 8177 ft | 263 kts | 3° |
| 2026-05-01 11:49 | 52.34078 | -0.11750 | 8176 ft | 259 kts | 332° |
| 2026-05-01 11:50 | 52.35469 | -0.13523 | 8161 ft | 253 kts | 302° |
| 2026-05-01 11:50 | 52.36117 | -0.16101 | 8175 ft | 243 kts | 271° |
| 2026-05-01 11:50 | 52.35874 | -0.18767 | 8190 ft | 238 kts | 241° |
| 2026-05-01 11:50 | 52.35000 | -0.21063 | 8196 ft | 240 kts | 232° |
| 2026-05-01 11:51 | 52.34023 | -0.23265 | 8173 ft | 238 kts | 231° |
| 2026-05-01 11:51 | 52.33044 | -0.25435 | 8162 ft | 236 kts | 231° |
| 2026-05-01 11:51 | 52.32066 | -0.27581 | 8178 ft | 235 kts | 231° |
| 2026-05-01 11:51 | 52.31087 | -0.29726 | 8176 ft | 236 kts | 231° |
| 2026-05-01 11:52 | 52.30107 | -0.31869 | 8164 ft | 235 kts | 231° |
| 2026-05-01 11:52 | 52.29130 | -0.34006 | 8174 ft | 234 kts | 231° |
| 2026-05-01 11:52 | 52.28153 | -0.36150 | 8151 ft | 237 kts | 231° |
| 2026-05-01 11:52 | 52.27136 | -0.38254 | 8152 ft | 235 kts | 220° |
| 2026-05-01 11:53 | 52.25791 | -0.39700 | 8170 ft | 231 kts | 207° |
| 2026-05-01 11:53 | 52.24368 | -0.40924 | 8161 ft | 231 kts | 206° |
| 2026-05-01 11:53 | 52.22933 | -0.42123 | 8161 ft | 232 kts | 206° |
| 2026-05-01 11:53 | 52.21497 | -0.43316 | 8159 ft | 232 kts | 206° |
| 2026-05-01 11:54 | 52.20057 | -0.44511 | 8155 ft | 232 kts | 206° |
| 2026-05-01 11:54 | 52.18614 | -0.45708 | 8163 ft | 233 kts | 206° |
| 2026-05-01 11:54 | 52.17185 | -0.46890 | 8168 ft | 233 kts | 206° |
| 2026-05-01 11:54 | 52.15737 | -0.48088 | 8155 ft | 233 kts | 205° |
| 2026-05-01 11:55 | 52.14310 | -0.49278 | 8147 ft | 226 kts | 206° |
| 2026-05-01 11:55 | 52.12943 | -0.50418 | 8149 ft | 215 kts | 206° |
| 2026-05-01 11:55 | 52.11621 | -0.51519 | 8153 ft | 213 kts | 205° |
| 2026-05-01 11:55 | 52.10306 | -0.52614 | 8161 ft | 212 kts | 205° |
| 2026-05-01 11:56 | 52.09415 | -0.53356 | 8155 ft | 214 kts | 206° |
| 2026-05-01 11:56 | 52.08078 | -0.54468 | 8164 ft | 217 kts | 206° |
| 2026-05-01 11:56 | 52.06729 | -0.55584 | 8160 ft | 217 kts | 205° |
| 2026-05-01 11:56 | 52.05388 | -0.56699 | 8155 ft | 216 kts | 205° |
| 2026-05-01 11:57 | 52.04057 | -0.57808 | 8149 ft | 214 kts | 205° |
| 2026-05-01 11:57 | 52.02736 | -0.58914 | 8006 ft | 217 kts | 206° |
| 2026-05-01 11:57 | 52.01374 | -0.60052 | 7743 ft | 226 kts | 206° |
| 2026-05-01 11:57 | 51.99954 | -0.61234 | 7353 ft | 233 kts | 206° |
| 2026-05-01 11:58 | 51.98483 | -0.62448 | 6922 ft | 235 kts | 206° |
| 2026-05-01 11:58 | 51.97032 | -0.63635 | 6519 ft | 238 kts | 206° |
| 2026-05-01 11:58 | 51.94031 | -0.66082 | 5601 ft | 242 kts | 205° |
| 2026-05-01 11:59 | 51.92538 | -0.67323 | 5247 ft | 239 kts | 206° |
| 2026-05-01 11:59 | 51.91062 | -0.68534 | 4897 ft | 237 kts | 206° |
| 2026-05-01 11:59 | 51.89569 | -0.69742 | 4537 ft | 236 kts | 206° |
| 2026-05-01 12:00 | 51.86509 | -0.70827 | 3747 ft | 230 kts | 166° |
| 2026-05-01 12:00 | 51.84985 | -0.70006 | 3393 ft | 227 kts | 159° |
| 2026-05-01 12:00 | 51.83010 | -0.66197 | 3182 ft | 235 kts | 105° |
| 2026-05-01 12:01 | 51.83044 | -0.63549 | 3069 ft | 233 kts | 83° |
| 2026-05-01 12:01 | 51.83337 | -0.61079 | 3054 ft | 222 kts | 81° |
| 2026-05-01 12:01 | 51.83707 | -0.58755 | 3038 ft | 202 kts | 78° |
| 2026-05-01 12:01 | 51.84087 | -0.56530 | 2809 ft | 205 kts | 79° |
| 2026-05-01 12:02 | 51.84466 | -0.54315 | 2507 ft | 201 kts | 77° |
| 2026-05-01 12:02 | 51.84831 | -0.52237 | 2333 ft | 186 kts | 80° |
| 2026-05-01 12:02 | 51.85147 | -0.50245 | 2094 ft | 172 kts | 79° |
| 2026-05-01 12:02 | 51.85470 | -0.48437 | 1811 ft | 163 kts | 77° |
| 2026-05-01 12:03 | 51.85767 | -0.46724 | 1600 ft | 154 kts | 78° |
| 2026-05-01 12:03 | 51.86048 | -0.45092 | 1383 ft | 150 kts | 79° |
| 2026-05-01 12:03 | 51.86330 | -0.43449 | 1176 ft | 154 kts | 78° |
| 2026-05-01 12:03 | 51.86612 | -0.41795 | 995 ft | 151 kts | 78° |
| 2026-05-01 12:04 | 51.86891 | -0.40168 | 797 ft | 148 kts | 77° |
| 2026-05-01 12:04 | 51.87169 | -0.38558 | 596 ft | 149 kts | 77° |
| 2026-05-01 12:04 | 51.87432 | -0.37018 | 538 ft | 125 kts | 74° |
| 2026-05-01 12:04 | 51.87601 | -0.36038 | 524 ft | 51 kts | 75° |
| 2026-05-01 12:05 | 51.87711 | -0.35927 | 527 ft | 18 kts | 343° |
| 2026-05-01 12:05 | 51.87768 | -0.36182 | 531 ft | 13 kts | 255° |
| 2026-05-01 12:05 | 51.87740 | -0.36337 | 531 ft | 16 kts | 254° |
| 2026-05-01 12:06 | 51.87708 | -0.36518 | 531 ft | 18 kts | 253° |
| 2026-05-01 12:06 | 51.87673 | -0.36719 | 532 ft | 19 kts | 254° |
| 2026-05-01 12:06 | 51.87646 | -0.36879 | 533 ft | 16 kts | 255° |
| 2026-05-01 12:06 | 51.87614 | -0.37064 | 533 ft | 18 kts | 253° |
| 2026-05-01 12:07 | 51.87585 | -0.37231 | 533 ft | 12 kts | 255° |
| 2026-05-01 12:07 | 51.87580 | -0.37357 | 534 ft | 10 kts | 283° |
| 2026-05-01 12:07 | 51.87622 | -0.37444 | 535 ft | 11 kts | 321° |
| 2026-05-01 12:07 | 51.87692 | -0.37536 | 533 ft | 13 kts | 299° |
| 2026-05-01 12:08 | 51.87736 | -0.37688 | 533 ft | 17 kts | 294° |
| 2026-05-01 12:08 | 51.87773 | -0.37816 | 533 ft | 8 kts | 295° |
| 2026-05-01 12:08 | 51.87800 | -0.37908 | 533 ft | 10 kts | 296° |
| 2026-05-01 12:08 | 51.87817 | -0.37945 | 533 ft | 3 kts | 326° |
| 2026-05-01 12:09 | 51.87839 | -0.37926 | 533 ft | 5 kts | 44° |
| 2026-05-01 12:09 | 51.87853 | -0.37904 | 533 ft | 1 kts | 45° |
| 2026-05-01 12:09 | 51.87858 | -0.37897 | 533 ft | 0 kts | 45° |
| 2026-05-01 12:09 | 51.87861 | -0.37892 | 533 ft | 0 kts | 45° |